Etretat — FIDP — position and weather

sailwx.info

Track history (hours):
 
Tides and Currents Weather Stations Pressure Air Temp Water Temp Dewpoint Dewpoint Depression Visibility Wind Speed Wind Dir Waves Ship Positions

Etretat

Last reported at 2014-Aug-01 02:29 UTC. Time now 2014-Aug-01 03:50 UTC.
Position N 50°05' W 000°23'.

Length 187 m; draft 6 m.

Type: Ship. MMSI: 228022900.

Date/timePositionNaut miles runAvg speedWind from/ knotsBaromVisibWave heightAir tempDewpointWater temp
2014-Aug-01 02:29N 50°05' W 000°23'2411.8
2014-Aug-01 00:26N 49°43' W 000°08'4 4.4
2014-Jul-31 23:33N 49°40' W 000°05'2 1.7
2014-Jul-31 22:33N 49°39' W 000°08'1 1.4
2014-Jul-31 21:34N 49°38' W 000°07'1211.9
2014-Jul-31 20:33N 49°29' E 000°05'1 1.1
2014-Jul-31 19:33N 49°29' E 000°07'0 0.0
2014-Jul-31 18:33N 49°29' E 000°07'0 0.0
2014-Jul-31 17:33N 49°29' E 000°07'0 0.0
2014-Jul-31 16:34N 49°29' E 000°07'9 9.4
2014-Jul-31 15:33N 49°36' W 000°03'6520.4
2014-Jul-31 12:21N 50°33' W 000°52'1518.9
2014-Jul-31 11:34N 50°46' W 001°05'3 3.1
2014-Jul-31 10:33N 50°49' W 001°06'0 0.0
2014-Jul-31 09:33N 50°49' W 001°06'0 0.0
2014-Jul-31 08:33N 50°49' W 001°06'0 0.0
2014-Jul-31 07:33N 50°49' W 001°06'1 1.4
2014-Jul-31 06:33N 50°47' W 001°07'1413.7
2014-Jul-31 05:34N 50°36' W 000°54'1512.3
2014-Jul-31 04:22N 50°24' W 000°41'2211.9
2014-Jul-31 02:33N 50°05' W 000°27'1212.2
2014-Jul-31 01:34N 49°54' W 000°18'1312.4
2014-Jul-31 00:32N 49°43' W 000°09'7 7.3
2014-Jul-30 23:33N 49°36' W 000°04'1 1.4
2014-Jul-30 22:33N 49°36' W 000°06'1 0.7
2014-Jul-30 21:33N 49°36' W 000°07'1111.2
2014-Jul-30 20:33N 49°29' E 000°07'0 0.1
2014-Jul-30 19:33N 49°29' E 000°07'0 0.0
2014-Jul-30 18:33N 49°29' E 000°07'0 0.0
2014-Jul-30 17:33N 49°29' E 000°07'0 0.0
2014-Jul-30 16:33N 49°29' E 000°07'10 9.6
2014-Jul-30 15:33N 49°36' W 000°04'4919.8
2014-Jul-30 13:06N 50°19' W 000°40'1120.9
2014-Jul-30 12:33N 50°29' W 000°48'2019.8
2014-Jul-30 11:33N 50°45' W 001°05'4 3.7
2014-Jul-30 10:33N 50°49' W 001°06'0 0.0
2014-Jul-30 09:33N 50°49' W 001°06'0 0.0
2014-Jul-30 08:33N 50°49' W 001°06'0 0.0
2014-Jul-30 07:33N 50°49' W 001°06'0 0.0
2014-Jul-30 06:33N 50°49' W 001°06'9 8.9
2014-Jul-30 05:33N 50°41' W 000°58'1414.0
2014-Jul-30 04:33N 50°28' W 000°51'4912.3
2014-Jul-30 00:33N 49°46' W 000°11'8 8.2
2014-Jul-29 23:33N 49°40' W 000°03'1 0.6
2014-Jul-29 22:33N 49°40' W 000°02'3 2.8
2014-Jul-29 21:33N 49°38' W 000°06'1111.1
2014-Jul-29 20:33N 49°29' E 000°04'2 1.5
2014-Jul-29 19:34N 49°29' E 000°07'0 0.0
2014-Jul-29 18:33N 49°29' E 000°07'0 0.0
2014-Jul-29 17:33N 49°29' E 000°07'0 0.0
2014-Jul-29 16:34N 49°29' E 000°07'1010.4
2014-Jul-29 15:33N 49°37' W 000°04'2221.6
2014-Jul-29 14:33N 49°56' W 000°20'4421.9
2014-Jul-29 12:33N 50°35' W 000°52'1716.8
2014-Jul-29 11:34N 50°48' W 001°07'1 0.7
2014-Jul-29 10:33N 50°49' W 001°06'0 0.0
2014-Jul-29 09:33N 50°49' W 001°06'0 0.0
2014-Jul-29 08:34N 50°49' W 001°06'0 0.0
2014-Jul-29 07:33N 50°49' W 001°06'7 7.1
2014-Jul-29 06:33N 50°43' W 000°59'1414.2
2014-Jul-29 05:33N 50°30' W 000°49'1413.7
2014-Jul-29 04:32N 50°18' W 000°37'3313.9
2014-Jul-29 02:09N 49°49' W 000°14'814.3
2014-Jul-29 01:33N 49°41' W 000°07'1313.4
2014-Jul-29 00:33N 49°30' E 000°03'3 2.6
2014-Jul-28 23:34N 49°29' E 000°07'7 6.9
2014-Jul-28 22:33N 49°34' W 000°01'2221.6
2014-Jul-28 21:33N 49°54' W 000°14'4422.2
2014-Jul-28 19:34N 50°33' W 000°47'1919.3
2014-Jul-28 18:33N 50°47' W 001°07'1 1.3
2014-Jul-28 17:33N 50°49' W 001°06'0 0.1
2014-Jul-28 16:34N 50°49' W 001°06'1110.9
2014-Jul-28 15:33N 50°38' W 001°06'17720.9
2014-Jul-28 07:04N 48°44' W 004°36'1222.4
2014-Jul-28 06:33N 48°36' W 004°49'1918.8
2014-Jul-28 05:33N 48°22' W 005°07'2222.3
2014-Jul-28 04:33N 47°60' W 005°08'16322.0
2014-Jul-27 21:09N 45°21' W 004°17'1321.7
2014-Jul-27 20:32N 45°08' W 004°12'2222.1
2014-Jul-27 19:33N 44°46' W 004°06'2222.1
2014-Jul-27 18:33N 44°25' W 003°60'2222.2
2014-Jul-27 17:33N 44°03' W 003°54'2222.0
2014-Jul-27 16:34N 43°41' W 003°48'14 2.8
2014-Jul-27 11:33N 43°27' W 003°48'21316.2
2014-Jul-26 22:22N 46°56' W 004°49'1720.8
2014-Jul-26 21:33N 47°13' W 004°54'2120.5
2014-Jul-26 20:32N 47°33' W 005°01'2121.2
2014-Jul-26 19:33N 47°53' W 005°07'2221.4
2014-Jul-26 18:32N 48°15' W 005°10'2218.7
2014-Jul-26 17:20N 48°34' W 004°50'1720.4
2014-Jul-26 16:32N 48°45' W 004°33'15521.7
2014-Jul-26 09:23N 50°26' W 001°30'1620.0
2014-Jul-26 08:34N 50°35' W 001°09'1313.0
2014-Jul-26 07:33N 50°48' W 001°07'1 0.7
2014-Jul-26 06:33N 50°49' W 001°06'0 0.0
2014-Jul-26 05:33N 50°49' W 001°06'0 0.0
2014-Jul-26 04:33N 50°49' W 001°06'7 6.8
2014-Jul-26 03:33N 50°43' W 000°60'1312.7
2014-Jul-26 02:33N 50°32' W 000°50'5111.6
2014-Jul-25 22:08N 49°47' W 000°12'610.3
2014-Jul-25 21:33N 49°41' W 000°08'1110.7
2014-Jul-25 20:34N 49°32' W 000°00'5 5.4
2014-Jul-25 19:33N 49°29' E 000°07'0 0.0
2014-Jul-25 18:33N 49°29' E 000°07'0 0.0
2014-Jul-25 17:33N 49°29' E 000°07'0 0.0
2014-Jul-25 16:33N 49°29' E 000°07'9 9.3
2014-Jul-25 15:33N 49°36' W 000°03'2221.6
2014-Jul-25 14:33N 49°55' W 000°18'3121.6
2014-Jul-25 13:07N 50°23' W 000°38'1221.6
2014-Jul-25 12:33N 50°33' W 000°49'1818.0
2014-Jul-25 11:33N 50°47' W 001°07'1 1.3
2014-Jul-25 10:33N 50°49' W 001°06'0 0.0
2014-Jul-25 09:33N 50°49' W 001°06'0 0.0
2014-Jul-25 08:34N 50°49' W 001°06'0 0.0
2014-Jul-25 07:33N 50°49' W 001°06'1 1.4
2014-Jul-25 06:33N 50°47' W 001°07'1414.1
2014-Jul-25 05:33N 50°36' W 000°52'1212.1
2014-Jul-25 04:32N 50°25' W 000°44'1412.5
2014-Jul-25 03:23N 50°13' W 000°31'3411.9
2014-Jul-25 00:33N 49°43' W 000°09'4 4.4
2014-Jul-24 23:33N 49°39' W 000°05'2 1.8
2014-Jul-24 22:32N 49°40' W 000°02'2 1.6
2014-Jul-24 21:33N 49°39' W 000°01'1010.4
2014-Jul-24 20:33N 49°29' E 000°04'2 1.7
2014-Jul-24 19:33N 49°29' E 000°07'0 0.0
2014-Jul-24 18:33N 49°29' E 000°07'0 0.0
2014-Jul-24 17:33N 49°29' E 000°07'0 0.0
2014-Jul-24 16:33N 49°29' E 000°07'9 9.2
2014-Jul-24 15:34N 49°35' W 000°04'4320.0
2014-Jul-24 13:23N 50°14' W 000°34'1719.8
2014-Jul-24 12:32N 50°29' W 000°48'1818.6
2014-Jul-24 11:34N 50°44' W 001°03'5 5.2
2014-Jul-24 10:33N 50°49' W 001°06'0 0.0
2014-Jul-24 09:33N 50°49' W 001°06'0 0.0
2014-Jul-24 08:33N 50°49' W 001°06'0 0.0
2014-Jul-24 07:33N 50°49' W 001°06'1 1.4
2014-Jul-24 06:33N 50°47' W 001°07'1413.6
2014-Jul-24 05:33N 50°37' W 000°53'1212.3
2014-Jul-24 04:33N 50°26' W 000°45'1712.2
2014-Jul-24 03:08N 50°09' W 000°35'712.2
2014-Jul-24 02:33N 50°03' W 000°31'1212.3
2014-Jul-24 01:33N 49°53' W 000°21'1211.9
2014-Jul-24 00:33N 49°41' W 000°15'3 2.5
2014-Jul-23 23:33N 49°41' W 000°11'2 2.1
2014-Jul-23 22:33N 49°41' W 000°08'4 3.8
2014-Jul-23 21:33N 49°38' W 000°05'1111.4
2014-Jul-23 20:33N 49°29' E 000°06'1 0.6
2014-Jul-23 19:33N 49°29' E 000°07'0 0.0
2014-Jul-23 18:33N 49°29' E 000°07'0 0.0
2014-Jul-23 17:33N 49°29' E 000°07'0 0.0
2014-Jul-23 16:33N 49°29' E 000°07'10 9.7
2014-Jul-23 15:33N 49°36' W 000°04'6119.4
2014-Jul-23 12:24N 50°30' W 000°48'1619.1
2014-Jul-23 11:33N 50°43' W 001°03'6 5.7
2014-Jul-23 10:33N 50°49' W 001°06'0 0.0
2014-Jul-23 09:33N 50°49' W 001°06'0 0.0
2014-Jul-23 08:33N 50°49' W 001°06'0 0.0
2014-Jul-23 07:33N 50°49' W 001°06'1 0.7
2014-Jul-23 06:33N 50°48' W 001°07'1414.1
2014-Jul-23 05:33N 50°37' W 000°53'1312.6
2014-Jul-23 04:33N 50°26' W 000°43'4912.2
2014-Jul-23 00:32N 49°43' W 000°08'5 5.1
2014-Jul-22 23:33N 49°39' W 000°03'1 1.1
2014-Jul-22 22:33N 49°40' W 000°03'4 4.3
2014-Jul-22 21:33N 49°36' W 000°04'9 9.4
2014-Jul-22 20:34N 49°29' E 000°06'0 0.4
2014-Jul-22 19:33N 49°29' E 000°07'0 0.0
2014-Jul-22 18:33N 49°29' E 000°07'0 0.0
2014-Jul-22 17:33N 49°29' E 000°07'0 0.0
2014-Jul-22 16:33N 49°29' E 000°07'8 7.8
2014-Jul-22 15:33N 49°34' W 000°02'6220.7
2014-Jul-22 12:33N 50°29' W 000°48'2019.6
2014-Jul-22 11:33N 50°45' W 001°05'4 3.6
2014-Jul-22 10:34N 50°49' W 001°06'0 0.0
2014-Jul-22 09:33N 50°49' W 001°06'0 0.0
2014-Jul-22 08:34N 50°49' W 001°06'0 0.0
2014-Jul-22 07:34N 50°49' W 001°06'6 6.0
2014-Jul-22 06:33N 50°43' W 001°01'1414.3
2014-Jul-22 05:33N 50°32' W 000°47'  
Track history (hours):
 
Tides and Currents Weather Stations Pressure Air Temp Water Temp Dewpoint Dewpoint Depression Visibility Wind Speed Wind Dir Waves Ship Positions

Etretat

Last reported at 2014-Aug-01 02:29 UTC. Time now 2014-Aug-01 03:50 UTC.
Position N 50°05' W 000°23'.

Length 187 m; draft 6 m.

Type: Ship. MMSI: 228022900.

Date/timePositionNaut miles runAvg speedWind from/ knotsBaromVisibWave heightAir tempDewpointWater temp
2014-Aug-01 02:29N 50°05' W 000°23'2411.8
2014-Aug-01 00:26N 49°43' W 000°08'4 4.4
2014-Jul-31 23:33N 49°40' W 000°05'2 1.7
2014-Jul-31 22:33N 49°39' W 000°08'1 1.4
2014-Jul-31 21:34N 49°38' W 000°07'1211.9
2014-Jul-31 20:33N 49°29' E 000°05'1 1.1
2014-Jul-31 19:33N 49°29' E 000°07'0 0.0
2014-Jul-31 18:33N 49°29' E 000°07'0 0.0
2014-Jul-31 17:33N 49°29' E 000°07'0 0.0
2014-Jul-31 16:34N 49°29' E 000°07'9 9.4
2014-Jul-31 15:33N 49°36' W 000°03'6520.4
2014-Jul-31 12:21N 50°33' W 000°52'1518.9
2014-Jul-31 11:34N 50°46' W 001°05'3 3.1
2014-Jul-31 10:33N 50°49' W 001°06'0 0.0
2014-Jul-31 09:33N 50°49' W 001°06'0 0.0
2014-Jul-31 08:33N 50°49' W 001°06'0 0.0
2014-Jul-31 07:33N 50°49' W 001°06'1 1.4
2014-Jul-31 06:33N 50°47' W 001°07'1413.7
2014-Jul-31 05:34N 50°36' W 000°54'1512.3
2014-Jul-31 04:22N 50°24' W 000°41'2211.9
2014-Jul-31 02:33N 50°05' W 000°27'1212.2
2014-Jul-31 01:34N 49°54' W 000°18'1312.4
2014-Jul-31 00:32N 49°43' W 000°09'7 7.3
2014-Jul-30 23:33N 49°36' W 000°04'1 1.4
2014-Jul-30 22:33N 49°36' W 000°06'1 0.7
2014-Jul-30 21:33N 49°36' W 000°07'1111.2
2014-Jul-30 20:33N 49°29' E 000°07'0 0.1
2014-Jul-30 19:33N 49°29' E 000°07'0 0.0
2014-Jul-30 18:33N 49°29' E 000°07'0 0.0
2014-Jul-30 17:33N 49°29' E 000°07'0 0.0
2014-Jul-30 16:33N 49°29' E 000°07'10 9.6
2014-Jul-30 15:33N 49°36' W 000°04'4919.8
2014-Jul-30 13:06N 50°19' W 000°40'1120.9
2014-Jul-30 12:33N 50°29' W 000°48'2019.8
2014-Jul-30 11:33N 50°45' W 001°05'4 3.7
2014-Jul-30 10:33N 50°49' W 001°06'0 0.0
2014-Jul-30 09:33N 50°49' W 001°06'0 0.0
2014-Jul-30 08:33N 50°49' W 001°06'0 0.0
2014-Jul-30 07:33N 50°49' W 001°06'0 0.0
2014-Jul-30 06:33N 50°49' W 001°06'9 8.9
2014-Jul-30 05:33N 50°41' W 000°58'1414.0
2014-Jul-30 04:33N 50°28' W 000°51'4912.3
2014-Jul-30 00:33N 49°46' W 000°11'8 8.2
2014-Jul-29 23:33N 49°40' W 000°03'1 0.6
2014-Jul-29 22:33N 49°40' W 000°02'3 2.8
2014-Jul-29 21:33N 49°38' W 000°06'1111.1
2014-Jul-29 20:33N 49°29' E 000°04'2 1.5
2014-Jul-29 19:34N 49°29' E 000°07'0 0.0
2014-Jul-29 18:33N 49°29' E 000°07'0 0.0
2014-Jul-29 17:33N 49°29' E 000°07'0 0.0
2014-Jul-29 16:34N 49°29' E 000°07'1010.4
2014-Jul-29 15:33N 49°37' W 000°04'2221.6
2014-Jul-29 14:33N 49°56' W 000°20'4421.9
2014-Jul-29 12:33N 50°35' W 000°52'1716.8
2014-Jul-29 11:34N 50°48' W 001°07'1 0.7
2014-Jul-29 10:33N 50°49' W 001°06'0 0.0
2014-Jul-29 09:33N 50°49' W 001°06'0 0.0
2014-Jul-29 08:34N 50°49' W 001°06'0 0.0
2014-Jul-29 07:33N 50°49' W 001°06'7 7.1
2014-Jul-29 06:33N 50°43' W 000°59'1414.2
2014-Jul-29 05:33N 50°30' W 000°49'1413.7
2014-Jul-29 04:32N 50°18' W 000°37'3313.9
2014-Jul-29 02:09N 49°49' W 000°14'814.3
2014-Jul-29 01:33N 49°41' W 000°07'1313.4
2014-Jul-29 00:33N 49°30' E 000°03'3 2.6
2014-Jul-28 23:34N 49°29' E 000°07'7 6.9
2014-Jul-28 22:33N 49°34' W 000°01'2221.6
2014-Jul-28 21:33N 49°54' W 000°14'4422.2
2014-Jul-28 19:34N 50°33' W 000°47'1919.3
2014-Jul-28 18:33N 50°47' W 001°07'1 1.3
2014-Jul-28 17:33N 50°49' W 001°06'0 0.1
2014-Jul-28 16:34N 50°49' W 001°06'1110.9
2014-Jul-28 15:33N 50°38' W 001°06'17720.9
2014-Jul-28 07:04N 48°44' W 004°36'1222.4
2014-Jul-28 06:33N 48°36' W 004°49'1918.8
2014-Jul-28 05:33N 48°22' W 005°07'2222.3
2014-Jul-28 04:33N 47°60' W 005°08'16322.0
2014-Jul-27 21:09N 45°21' W 004°17'1321.7
2014-Jul-27 20:32N 45°08' W 004°12'2222.1
2014-Jul-27 19:33N 44°46' W 004°06'2222.1
2014-Jul-27 18:33N 44°25' W 003°60'2222.2
2014-Jul-27 17:33N 44°03' W 003°54'2222.0
2014-Jul-27 16:34N 43°41' W 003°48'14 2.8
2014-Jul-27 11:33N 43°27' W 003°48'21316.2
2014-Jul-26 22:22N 46°56' W 004°49'1720.8
2014-Jul-26 21:33N 47°13' W 004°54'2120.5
2014-Jul-26 20:32N 47°33' W 005°01'2121.2
2014-Jul-26 19:33N 47°53' W 005°07'2221.4
2014-Jul-26 18:32N 48°15' W 005°10'2218.7
2014-Jul-26 17:20N 48°34' W 004°50'1720.4
2014-Jul-26 16:32N 48°45' W 004°33'15521.7
2014-Jul-26 09:23N 50°26' W 001°30'1620.0
2014-Jul-26 08:34N 50°35' W 001°09'1313.0
2014-Jul-26 07:33N 50°48' W 001°07'1 0.7
2014-Jul-26 06:33N 50°49' W 001°06'0 0.0
2014-Jul-26 05:33N 50°49' W 001°06'0 0.0
2014-Jul-26 04:33N 50°49' W 001°06'7 6.8
2014-Jul-26 03:33N 50°43' W 000°60'1312.7
2014-Jul-26 02:33N 50°32' W 000°50'5111.6
2014-Jul-25 22:08N 49°47' W 000°12'610.3
2014-Jul-25 21:33N 49°41' W 000°08'1110.7
2014-Jul-25 20:34N 49°32' W 000°00'5 5.4
2014-Jul-25 19:33N 49°29' E 000°07'0 0.0
2014-Jul-25 18:33N 49°29' E 000°07'0 0.0
2014-Jul-25 17:33N 49°29' E 000°07'0 0.0
2014-Jul-25 16:33N 49°29' E 000°07'9 9.3
2014-Jul-25 15:33N 49°36' W 000°03'2221.6
2014-Jul-25 14:33N 49°55' W 000°18'3121.6
2014-Jul-25 13:07N 50°23' W 000°38'1221.6
2014-Jul-25 12:33N 50°33' W 000°49'1818.0
2014-Jul-25 11:33N 50°47' W 001°07'1 1.3
2014-Jul-25 10:33N 50°49' W 001°06'0 0.0
2014-Jul-25 09:33N 50°49' W 001°06'0 0.0
2014-Jul-25 08:34N 50°49' W 001°06'0 0.0
2014-Jul-25 07:33N 50°49' W 001°06'1 1.4
2014-Jul-25 06:33N 50°47' W 001°07'1414.1
2014-Jul-25 05:33N 50°36' W 000°52'1212.1
2014-Jul-25 04:32N 50°25' W 000°44'1412.5
2014-Jul-25 03:23N 50°13' W 000°31'3411.9
2014-Jul-25 00:33N 49°43' W 000°09'4 4.4
2014-Jul-24 23:33N 49°39' W 000°05'2 1.8
2014-Jul-24 22:32N 49°40' W 000°02'2 1.6
2014-Jul-24 21:33N 49°39' W 000°01'1010.4
2014-Jul-24 20:33N 49°29' E 000°04'2 1.7
2014-Jul-24 19:33N 49°29' E 000°07'0 0.0
2014-Jul-24 18:33N 49°29' E 000°07'0 0.0
2014-Jul-24 17:33N 49°29' E 000°07'0 0.0
2014-Jul-24 16:33N 49°29' E 000°07'9 9.2
2014-Jul-24 15:34N 49°35' W 000°04'4320.0
2014-Jul-24 13:23N 50°14' W 000°34'1719.8
2014-Jul-24 12:32N 50°29' W 000°48'1818.6
2014-Jul-24 11:34N 50°44' W 001°03'5 5.2
2014-Jul-24 10:33N 50°49' W 001°06'0 0.0
2014-Jul-24 09:33N 50°49' W 001°06'0 0.0
2014-Jul-24 08:33N 50°49' W 001°06'0 0.0
2014-Jul-24 07:33N 50°49' W 001°06'1 1.4
2014-Jul-24 06:33N 50°47' W 001°07'1413.6
2014-Jul-24 05:33N 50°37' W 000°53'1212.3
2014-Jul-24 04:33N 50°26' W 000°45'1712.2
2014-Jul-24 03:08N 50°09' W 000°35'712.2
2014-Jul-24 02:33N 50°03' W 000°31'1212.3
2014-Jul-24 01:33N 49°53' W 000°21'1211.9
2014-Jul-24 00:33N 49°41' W 000°15'3 2.5
2014-Jul-23 23:33N 49°41' W 000°11'2 2.1
2014-Jul-23 22:33N 49°41' W 000°08'4 3.8
2014-Jul-23 21:33N 49°38' W 000°05'1111.4
2014-Jul-23 20:33N 49°29' E 000°06'1 0.6
2014-Jul-23 19:33N 49°29' E 000°07'0 0.0
2014-Jul-23 18:33N 49°29' E 000°07'0 0.0
2014-Jul-23 17:33N 49°29' E 000°07'0 0.0
2014-Jul-23 16:33N 49°29' E 000°07'10 9.7
2014-Jul-23 15:33N 49°36' W 000°04'6119.4
2014-Jul-23 12:24N 50°30' W 000°48'1619.1
2014-Jul-23 11:33N 50°43' W 001°03'6 5.7
2014-Jul-23 10:33N 50°49' W 001°06'0 0.0
2014-Jul-23 09:33N 50°49' W 001°06'0 0.0
2014-Jul-23 08:33N 50°49' W 001°06'0 0.0
2014-Jul-23 07:33N 50°49' W 001°06'1 0.7
2014-Jul-23 06:33N 50°48' W 001°07'1414.1
2014-Jul-23 05:33N 50°37' W 000°53'1312.6
2014-Jul-23 04:33N 50°26' W 000°43'4912.2
2014-Jul-23 00:32N 49°43' W 000°08'5 5.1
2014-Jul-22 23:33N 49°39' W 000°03'1 1.1
2014-Jul-22 22:33N 49°40' W 000°03'4 4.3
2014-Jul-22 21:33N 49°36' W 000°04'9 9.4
2014-Jul-22 20:34N 49°29' E 000°06'0 0.4
2014-Jul-22 19:33N 49°29' E 000°07'0 0.0
2014-Jul-22 18:33N 49°29' E 000°07'0 0.0
2014-Jul-22 17:33N 49°29' E 000°07'0 0.0
2014-Jul-22 16:33N 49°29' E 000°07'8 7.8
2014-Jul-22 15:33N 49°34' W 000°02'6220.7
2014-Jul-22 12:33N 50°29' W 000°48'2019.6
2014-Jul-22 11:33N 50°45' W 001°05'4 3.6
2014-Jul-22 10:34N 50°49' W 001°06'0 0.0
2014-Jul-22 09:33N 50°49' W 001°06'0 0.0
2014-Jul-22 08:34N 50°49' W 001°06'0 0.0
2014-Jul-22 07:34N 50°49' W 001°06'6 6.0
2014-Jul-22 06:33N 50°43' W 001°01'1414.3
2014-Jul-22 05:33N 50°32' W 000°47'  

Dump ship's entire track history